Meteo Giornale » Osservazioni meteo Italia » Roma Fiumicino

ore: 18:50 - Osservazioni Meteo Roma Fiumicino
Lat. 41° 48' N Lon. 12° 14' E Alt. 2 metri s.l.m.

sereno Europe/Rome

12 °C

Sereno

Temp. 24 Ore

4 °C

16 °C

Ovest/Sud-Ovest

7.4 Km/h

Dew point 5 °C

Umidità 62 %

Visibilità  10 Km

Il sole sorge alle ore 06:46

Il sole tramonta alle ore 18:00

Data e Ora Cielo e Fenomeni T °C DP °C Um. % Pres. hPa Vis. km Vento km/h
Oggi h: 18:50 sereno Sereno 12 5 62 1017 10 O/SO 7.4
Oggi h: 18:20 sereno Sereno 11 5 66 1017 10 O 9.3
Oggi h: 17:50 sereno Sereno 12 6 66 1017 10 O/SO 13
Oggi h: 17:20 sereno Sereno 13 5 58 1017 10 SO 13
Oggi h: 16:50 sereno Sereno 14 7 62 1017 10 O/SO 13
Oggi h: 16:20 sereno Sereno 14 5 54 1017 10 O/SO 13
Oggi h: 15:50 sereno Sereno 15 5 51 1017 10 O/SO 14.8
Oggi h: 15:20 sereno Sereno 15 5 51 1017 10 SO 14.8
Oggi h: 14:50 sereno Sereno 15 6 54 1017 10 O/SO 14.8
Oggi h: 14:20 sereno Sereno 16 7 55 1017 10 O/SO 14.8
Oggi h: 13:50 sereno Sereno 15 5 51 1018 10 O/SO 14.8
Oggi h: 13:20 sereno Sereno 15 8 62 1018 10 O/SO 14.8
Oggi h: 12:50 poco_nuvoloso Poco Nuvoloso 16 9 63 1018 10 SO 14.8
Oggi h: 12:20 poco_nuvoloso Poco Nuvoloso 16 8 58 1018 10 S 13
Oggi h: 11:50 poco_nuvoloso Poco Nuvoloso 16 9 63 1018 10 S 14.8
Oggi h: 11:20 poco_nuvoloso Poco Nuvoloso 15 8 62 1019 10 S 14.8
Oggi h: 10:50 poco_nuvoloso Poco Nuvoloso 15 10 72 1019 10 S 13
Oggi h: 10:20 poco_nuvoloso Poco Nuvoloso 15 9 67 1019 10 S 11.1
Oggi h: 09:50 sereno Sereno 13 8 71 1018 10 SE 7.4
Oggi h: 09:20 sereno Sereno 12 8 76 1018 10 E 9.3
Oggi h: 08:50 sereno Sereno 9 7 87 1018 10 E 11.1
Oggi h: 08:20 sereno Sereno 8 6 87 1018 10 E 9.3
Oggi h: 07:50 sereno Sereno 6 5 93 1018 10 N 5.5
Oggi h: 07:20 sereno Sereno 5 4 93 1018 10 E 7.4
Oggi h: 06:50 sereno Sereno 5 4 93 1018 10 N 5.5
Oggi h: 06:20 sereno Sereno 5 4 93 1018 10 N 3.7
Oggi h: 05:50 sereno Sereno 5 4 93 1018 10 N 5.5
Oggi h: 05:20 sereno Sereno 4 3 93 1018 10 N 5.5
Oggi h: 04:50 sereno Sereno 4 3 93 1017 10 E 9.3
Oggi h: 04:20 sereno Sereno 5 3 86 1017 10 E 9.3
Oggi h: 03:50 sereno Sereno 5 4 93 1017 10 E 9.3
Oggi h: 03:20 sereno Sereno 5 4 93 1018 10 E 9.3
Oggi h: 02:50 sereno Sereno 5 4 93 1018 10 E 9.3
Oggi h: 02:20 sereno Sereno 6 4 86 1018 10 E 9.3
Oggi h: 01:50 sereno Sereno 6 4 86 1018 10 N 5.5
Oggi h: 01:20 sereno Sereno 6 4 86 1018 10 N 3.7
Oggi h: 00:50 sereno Sereno 6 5 93 1018 10 N 3.7
Oggi h: 00:20 sereno Sereno 7 5 87 1018 10 N 5.5
Ieri h: 23:50 sereno Sereno 8 5 81 1018 10 N 3.7
Ieri h: 22:50 sereno Sereno 9 6 81 1018 10 N 3.7
Ieri h: 22:20 sereno Sereno 10 6 76 1018 10 N 3.7
Ieri h: 21:50 sereno Sereno 9 6 81 1018 10 N 5.5
Ieri h: 21:20 sereno Sereno 11 5 66 1018 10 N 0
Ieri h: 20:50 sereno Sereno 10 5 71 1018 10 N 0
Ieri h: 20:20 sereno Sereno 10 5 71 1018 10 N 0
Ieri h: 19:50 sereno Sereno 11 5 66 1018 10 O/NO 7.4
Ieri h: 19:20 sereno Sereno 12 6 66 1018 10 O/NO 7.4